Time;durP1;ratioP1;P1;durP2;ratioP2;P2;SDS_P1;SDS_P2;PMS_P1;PMS_P2;Temp;Humidity;BMP_temperature;BMP_pressure;BME280_temperature;BME280_humidity;BME280_pressure;Samples;Min_cycle;Max_cycle;Signal;HPM_P1;HPM_P2
2024/03/04 00:01:12;;;;;;;0.85;0.85;;;;;;;;;;6321286;28;20392;-77
2024/03/04 00:04:12;;;;;;;2.20;1.30;;;;;;;;;;6315293;28;20036;-77
2024/03/04 00:07:13;;;;;;;2.73;1.13;;;;;;;;;;6315823;28;20041;-77
2024/03/04 00:10:13;;;;;;;2.17;1.30;;;;;;;;;;6324328;28;20031;-77
2024/03/04 00:13:13;;;;;;;1.30;0.93;;;;;;;;;;6322242;28;20031;-79
2024/03/04 00:16:13;;;;;;;1.33;1.10;;;;;;;;;;6316903;28;20027;-77
2024/03/04 00:19:18;;;;;;;1.83;1.40;;;;;;;;;;6322347;28;20024;-77
2024/03/04 00:22:18;;;;;;;1.95;1.27;;;;;;;;;;6319705;28;20032;-77
2024/03/04 00:25:19;;;;;;;1.70;1.20;;;;;;;;;;6321151;28;20047;-78
2024/03/04 00:28:19;;;;;;;2.17;1.40;;;;;;;;;;6322017;28;20012;-77
2024/03/04 00:31:20;;;;;;;1.17;1.07;;;;;;;;;;6320831;28;20467;-77
2024/03/04 00:34:20;;;;;;;1.60;1.33;;;;;;;;;;6299460;28;20024;-79
2024/03/04 00:37:21;;;;;;;1.87;1.43;;;;;;;;;;6318594;28;20095;-77
2024/03/04 00:40:22;;;;;;;1.40;1.13;;;;;;;;;;6302448;28;20078;-77
2024/03/04 00:43:22;;;;;;;;;;;;;;;;;;6322149;28;20476;-77
2024/03/04 00:46:23;;;;;;;3.17;1.40;;;;;;;;;;6318482;28;19919;-78
2024/03/04 00:49:23;;;;;;;1.60;1.10;;;;;;;;;;6321257;28;20039;-79
2024/03/04 00:52:23;;;;;;;2.63;1.20;;;;;;;;;;6319235;28;20028;-78
2024/03/04 00:55:24;;;;;;;3.53;1.30;;;;;;;;;;6321467;28;20032;-78
2024/03/04 00:58:24;;;;;;;2.22;1.33;;;;;;;;;;6320818;28;20036;-77
2024/03/04 01:01:25;;;;;;;3.10;1.20;;;;;;;;;;6319615;28;20055;-77
2024/03/04 01:04:25;;;;;;;1.23;1.07;;;;;;;;;;6321237;28;20028;-77
2024/03/04 01:07:26;;;;;;;1.23;1.13;;;;;;;;;;6316109;28;20487;-78
2024/03/04 01:10:27;;;;;;;;;;;;;;;;;;6320579;28;20046;-77
2024/03/04 01:13:27;;;;;;;1.85;1.00;;;;;;;;;;6321536;28;19908;-77
2024/03/04 01:16:28;;;;;;;2.70;1.20;;;;;;;;;;6319648;28;20051;-77
2024/03/04 01:19:28;;;;;;;1.73;1.30;;;;;;;;;;6320041;28;20024;-77
2024/03/04 01:22:28;;;;;;;2.30;1.20;;;;;;;;;;6320446;28;20627;-76
2024/03/04 01:25:29;;;;;;;1.80;1.20;;;;;;;;;;6321256;28;20063;-77
2024/03/04 01:28:29;;;;;;;1.90;1.33;;;;;;;;;;6304834;28;20062;-76
2024/03/04 01:31:29;;;;;;;2.40;1.30;;;;;;;;;;6321726;28;20034;-77
2024/03/04 01:34:30;;;;;;;1.87;1.20;;;;;;;;;;6318922;28;20024;-78
2024/03/04 01:37:30;;;;;;;2.17;1.17;;;;;;;;;;6318536;28;20027;-77
2024/03/04 01:40:30;;;;;;;1.90;1.00;;;;;;;;;;6317163;28;20020;-77
2024/03/04 01:43:30;;;;;;;1.50;1.00;;;;;;;;;;6320220;28;20034;-77
2024/03/04 01:46:32;;;;;;;1.43;1.00;;;;;;;;;;6318037;28;20107;-77
2024/03/04 01:49:33;;;;;;;2.65;1.13;;;;;;;;;;6319621;28;20111;-77
2024/03/04 01:52:33;;;;;;;;;;;;;;;;;;6317799;28;20024;-78
2024/03/04 01:55:38;;;;;;;1.25;0.98;;;;;;;;;;6319985;28;19908;-78
2024/03/04 01:58:41;;;;;;;2.15;1.30;;;;;;;;;;6318053;28;20023;-77
2024/03/04 02:01:41;;;;;;;2.10;1.17;;;;;;;;;;6300570;28;20127;-77
2024/03/04 02:04:42;;;;;;;2.57;1.43;;;;;;;;;;6318813;28;20040;-77
2024/03/04 02:07:42;;;;;;;2.75;1.42;;;;;;;;;;6297976;28;20028;-77
2024/03/04 02:10:44;;;;;;;2.20;1.27;;;;;;;;;;6318906;28;20442;-77
2024/03/04 02:13:44;;;;;;;;;;;;;;;;;;6320515;28;20024;-77
2024/03/04 02:16:45;;;;;;;0.70;0.70;;;;;;;;;;6317069;28;20388;-77
2024/03/04 02:19:45;;;;;;;1.60;0.97;;;;;;;;;;6317263;28;20151;-78
2024/03/04 02:22:45;;;;;;;1.67;1.00;;;;;;;;;;6319192;28;20274;-77
2024/03/04 02:25:56;;;;;;;1.23;1.00;;;;;;;;;;6314505;28;20050;-77
2024/03/04 02:28:57;;;;;;;2.07;1.03;;;;;;;;;;6319598;28;20020;-77
2024/03/04 02:31:57;;;;;;;2.45;1.10;;;;;;;;;;6316153;28;20103;-77
2024/03/04 02:34:58;;;;;;;1.07;0.80;;;;;;;;;;6313073;28;20426;-78
2024/03/04 02:37:59;;;;;;;1.20;0.90;;;;;;;;;;6318859;28;20024;-77
2024/03/04 02:41:03;;;;;;;0.88;0.77;;;;;;;;;;6318530;28;20020;-77
2024/03/04 02:44:04;;;;;;;2.08;1.02;;;;;;;;;;6315059;28;20086;-77
2024/03/04 02:47:05;;;;;;;1.58;0.90;;;;;;;;;;6319021;28;20431;-77
2024/03/04 02:50:07;;;;;;;1.43;0.80;;;;;;;;;;6314847;28;20097;-77
2024/03/04 02:53:08;;;;;;;1.55;0.80;;;;;;;;;;6299389;28;20021;-77
2024/03/04 02:56:09;;;;;;;1.00;0.73;;;;;;;;;;6300941;28;20024;-77
2024/03/04 02:59:09;;;;;;;1.80;0.95;;;;;;;;;;6318964;28;20035;-77
2024/03/04 03:02:10;;;;;;;2.47;0.90;;;;;;;;;;6319208;28;20648;-77
2024/03/04 03:05:10;;;;;;;1.83;0.77;;;;;;;;;;6321652;28;20485;-77
2024/03/04 03:08:10;;;;;;;1.10;1.00;;;;;;;;;;6317409;28;20109;-77
2024/03/04 03:11:11;;;;;;;1.30;0.87;;;;;;;;;;6319614;28;20515;-77
2024/03/04 03:14:11;;;;;;;2.40;1.00;;;;;;;;;;6324164;28;20120;-77
2024/03/04 03:17:12;;;;;;;1.50;0.90;;;;;;;;;;6319104;28;20314;-77
2024/03/04 03:20:18;;;;;;;1.63;0.70;;;;;;;;;;6322678;28;20060;-77
2024/03/04 03:23:18;;;;;;;1.10;0.80;;;;;;;;;;6319369;28;20473;-77
2024/03/04 03:26:18;;;;;;;1.87;0.90;;;;;;;;;;6322150;28;20052;-77
2024/03/04 03:29:19;;;;;;;1.03;0.80;;;;;;;;;;6322821;28;20019;-77
2024/03/04 03:32:19;;;;;;;1.57;0.90;;;;;;;;;;6305128;28;20027;-77
2024/03/04 03:35:19;;;;;;;1.20;0.80;;;;;;;;;;6320472;28;20024;-78
2024/03/04 03:38:20;;;;;;;3.00;0.77;;;;;;;;;;6321047;28;20027;-77
2024/03/04 03:41:20;;;;;;;1.47;0.90;;;;;;;;;;6316297;28;20020;-76
2024/03/04 03:44:21;;;;;;;1.47;0.80;;;;;;;;;;6322649;28;20024;-79
2024/03/04 03:47:21;;;;;;;0.77;0.77;;;;;;;;;;6322615;28;20349;-77
2024/03/04 03:50:21;;;;;;;0.80;0.70;;;;;;;;;;6302887;28;20019;-78
2024/03/04 03:53:23;;;;;;;1.07;0.80;;;;;;;;;;6322453;28;20093;-77
2024/03/04 03:56:23;;;;;;;1.20;0.80;;;;;;;;;;6320254;28;20036;-77
2024/03/04 03:59:23;;;;;;;0.77;0.73;;;;;;;;;;6320219;28;20028;-78
2024/03/04 04:02:25;;;;;;;1.37;0.80;;;;;;;;;;6322893;28;20173;-77
2024/03/04 04:05:25;;;;;;;1.23;0.60;;;;;;;;;;6302232;28;20020;-76
2024/03/04 04:08:26;;;;;;;0.93;0.70;;;;;;;;;;6322131;28;20441;-77
2024/03/04 04:11:26;;;;;;;1.17;0.80;;;;;;;;;;6315762;28;20016;-77
2024/03/04 04:14:26;;;;;;;0.77;0.63;;;;;;;;;;6320613;28;20032;-77
2024/03/04 04:17:26;;;;;;;0.70;0.53;;;;;;;;;;6320963;28;20032;-77
2024/03/04 04:20:29;;;;;;;0.90;0.60;;;;;;;;;;6317400;28;20032;-77
2024/03/04 04:23:29;;;;;;;0.98;0.68;;;;;;;;;;6322883;28;20056;-78
2024/03/04 04:26:30;;;;;;;1.03;0.63;;;;;;;;;;6322206;28;20048;-77
2024/03/04 04:29:30;;;;;;;1.67;0.80;;;;;;;;;;6321328;28;20099;-77
2024/03/04 04:32:30;;;;;;;2.37;0.70;;;;;;;;;;6320112;28;20107;-77
2024/03/04 04:35:30;;;;;;;1.37;0.60;;;;;;;;;;6319656;28;20103;-77
2024/03/04 04:38:31;;;;;;;1.37;0.60;;;;;;;;;;6321491;28;20062;-77
2024/03/04 04:41:31;;;;;;;1.47;0.67;;;;;;;;;;6322592;28;20468;-78
2024/03/04 04:44:32;;;;;;;1.00;0.60;;;;;;;;;;6321400;28;20489;-77
2024/03/04 04:47:32;;;;;;;1.23;0.82;;;;;;;;;;6320479;28;20024;-77
2024/03/04 04:50:32;;;;;;;1.17;0.63;;;;;;;;;;6314566;28;20039;-77
2024/03/04 04:53:33;;;;;;;1.67;0.57;;;;;;;;;;6321130;28;20028;-78
2024/03/04 04:56:33;;;;;;;0.60;0.60;;;;;;;;;;6318127;28;20027;-77
2024/03/04 04:59:33;;;;;;;0.80;0.57;;;;;;;;;;6321036;28;20480;-77
2024/03/04 05:02:34;;;;;;;1.27;0.73;;;;;;;;;;6320843;28;20107;-76
2024/03/04 05:05:34;;;;;;;1.17;0.70;;;;;;;;;;6316490;28;20099;-78
2024/03/04 05:08:34;;;;;;;0.87;0.70;;;;;;;;;;6320146;28;20274;-78
2024/03/04 05:11:35;;;;;;;0.97;0.70;;;;;;;;;;6319566;28;20020;-77
2024/03/04 05:14:36;;;;;;;1.00;0.60;;;;;;;;;;6298309;28;20161;-77
2024/03/04 05:17:37;;;;;;;1.63;0.70;;;;;;;;;;6320022;28;20035;-77
2024/03/04 05:20:37;;;;;;;1.40;0.70;;;;;;;;;;6320127;28;20523;-77
2024/03/04 05:23:37;;;;;;;0.83;0.60;;;;;;;;;;6317641;28;20099;-77
2024/03/04 05:26:38;;;;;;;1.07;0.73;;;;;;;;;;6320130;28;20051;-77
2024/03/04 05:29:38;;;;;;;0.43;0.40;;;;;;;;;;6321502;28;20449;-78
2024/03/04 05:32:38;;;;;;;1.63;0.80;;;;;;;;;;6319847;28;20035;-77
2024/03/04 05:35:38;;;;;;;1.23;0.67;;;;;;;;;;6314053;28;20070;-77
2024/03/04 05:38:39;;;;;;;1.67;0.83;;;;;;;;;;6320199;28;20030;-79
2024/03/04 05:41:39;;;;;;;1.00;0.60;;;;;;;;;;6319146;28;20115;-77
2024/03/04 05:44:39;;;;;;;1.10;0.70;;;;;;;;;;6314914;28;20020;-77
2024/03/04 05:47:40;;;;;;;0.93;0.67;;;;;;;;;;6323125;28;20063;-77
2024/03/04 05:50:40;;;;;;;1.00;0.63;;;;;;;;;;6317953;28;20073;-77
2024/03/04 05:53:40;;;;;;;1.33;1.00;;;;;;;;;;6319904;28;20099;-77
2024/03/04 05:56:41;;;;;;;1.40;0.70;;;;;;;;;;6317903;28;20028;-77
2024/03/04 05:59:42;;;;;;;1.77;0.82;;;;;;;;;;6322232;28;20362;-77
2024/03/04 06:02:42;;;;;;;1.13;0.60;;;;;;;;;;6319758;28;20063;-77
2024/03/04 06:05:42;;;;;;;1.20;0.90;;;;;;;;;;6320920;28;20123;-77
2024/03/04 06:08:43;;;;;;;1.30;0.57;;;;;;;;;;6318903;28;20525;-78
2024/03/04 06:11:43;;;;;;;1.30;0.60;;;;;;;;;;6314458;28;20468;-78
2024/03/04 06:14:44;;;;;;;0.63;0.60;;;;;;;;;;6315398;28;20031;-78
2024/03/04 06:17:45;;;;;;;0.40;0.40;;;;;;;;;;6319608;28;20418;-77
2024/03/04 06:20:45;;;;;;;0.95;0.52;;;;;;;;;;6318735;28;20468;-77
2024/03/04 06:23:45;;;;;;;0.90;0.70;;;;;;;;;;6297773;28;20412;-77
2024/03/04 06:26:45;;;;;;;1.60;0.70;;;;;;;;;;6300882;28;20499;-78
2024/03/04 06:29:46;;;;;;;0.73;0.60;;;;;;;;;;6315636;28;20056;-78
2024/03/04 06:32:46;;;;;;;1.33;0.77;;;;;;;;;;6319241;28;20101;-78
2024/03/04 06:35:46;;;;;;;1.33;0.60;;;;;;;;;;6317530;28;20028;-77
2024/03/04 06:38:46;;;;;;;1.10;0.70;;;;;;;;;;6299400;28;20027;-78
2024/03/04 06:41:47;;;;;;;0.97;0.70;;;;;;;;;;6326090;28;20103;-77
2024/03/04 06:44:47;;;;;;;2.07;0.90;;;;;;;;;;6323711;28;20012;-78
2024/03/04 06:47:48;;;;;;;0.90;0.57;;;;;;;;;;6323920;28;20024;-78
2024/03/04 06:50:48;;;;;;;0.70;0.50;;;;;;;;;;6321623;28;20073;-78
2024/03/04 06:53:48;;;;;;;1.40;0.60;;;;;;;;;;6321093;28;20016;-78
2024/03/04 06:56:48;;;;;;;0.90;0.80;;;;;;;;;;6322639;28;20457;-78
2024/03/04 06:59:49;;;;;;;3.13;0.70;;;;;;;;;;6322576;28;20019;-79
2024/03/04 07:02:49;;;;;;;0.70;0.63;;;;;;;;;;6322266;28;20035;-78
2024/03/04 07:05:49;;;;;;;0.53;0.53;;;;;;;;;;6299783;28;20460;-78
2024/03/04 07:08:49;;;;;;;0.83;0.60;;;;;;;;;;6321286;28;20272;-82
2024/03/04 07:11:50;;;;;;;0.97;0.70;;;;;;;;;;6314953;28;20081;-80
2024/03/04 07:14:50;;;;;;;2.23;0.70;;;;;;;;;;6317686;28;20358;-78
2024/03/04 07:17:50;;;;;;;1.87;0.90;;;;;;;;;;6318228;28;20129;-78
2024/03/04 07:20:50;;;;;;;1.00;0.60;;;;;;;;;;6297995;28;20131;-78
2024/03/04 07:23:50;;;;;;;1.17;0.80;;;;;;;;;;6321162;28;20046;-78
2024/03/04 07:26:51;;;;;;;0.80;0.60;;;;;;;;;;6324337;28;20123;-78
2024/03/04 07:29:51;;;;;;;1.10;0.67;;;;;;;;;;6322624;28;20024;-78
2024/03/04 07:32:51;;;;;;;2.10;0.90;;;;;;;;;;6323489;28;20372;-78
2024/03/04 07:35:51;;;;;;;1.47;0.70;;;;;;;;;;6323531;28;20028;-84
2024/03/04 07:38:52;;;;;;;1.57;0.67;;;;;;;;;;6324142;28;20028;-84
2024/03/04 07:41:52;;;;;;;0.50;0.50;;;;;;;;;;6326316;28;20070;-84
2024/03/04 07:44:52;;;;;;;1.90;0.90;;;;;;;;;;6306324;28;20028;-84
2024/03/04 07:47:52;;;;;;;1.90;1.17;;;;;;;;;;6325843;28;20023;-84
2024/03/04 07:50:53;;;;;;;1.17;0.80;;;;;;;;;;6323352;28;20027;-83
2024/03/04 07:53:53;;;;;;;1.27;0.70;;;;;;;;;;6307346;28;20029;-84
2024/03/04 07:56:53;;;;;;;0.70;0.60;;;;;;;;;;6312878;28;20023;-84
2024/03/04 07:59:53;;;;;;;2.17;0.70;;;;;;;;;;6325300;28;20017;-84
2024/03/04 08:02:53;;;;;;;2.00;0.60;;;;;;;;;;6325926;28;20028;-84
2024/03/04 08:05:54;;;;;;;1.27;0.73;;;;;;;;;;6324211;28;20103;-84
2024/03/04 08:08:54;;;;;;;0.57;0.50;;;;;;;;;;6324655;28;20111;-84
2024/03/04 08:11:54;;;;;;;2.37;0.77;;;;;;;;;;6322009;28;20024;-84
2024/03/04 08:14:55;;;;;;;1.30;0.70;;;;;;;;;;6325687;28;20023;-84
2024/03/04 08:17:55;;;;;;;1.13;0.83;;;;;;;;;;6306805;28;20031;-84
2024/03/04 08:20:55;;;;;;;2.20;0.70;;;;;;;;;;6323968;28;20020;-84
2024/03/04 08:23:55;;;;;;;0.80;0.70;;;;;;;;;;6325251;28;20017;-84
2024/03/04 08:26:56;;;;;;;1.30;0.63;;;;;;;;;;6326054;28;20020;-84
2024/03/04 08:29:56;;;;;;;0.80;0.53;;;;;;;;;;6324131;28;20024;-84
2024/03/04 08:32:56;;;;;;;0.90;0.70;;;;;;;;;;6323912;28;20024;-84
2024/03/04 08:35:56;;;;;;;1.10;0.60;;;;;;;;;;6305444;28;20027;-84
2024/03/04 08:38:57;;;;;;;0.53;0.50;;;;;;;;;;6323853;28;20051;-84
2024/03/04 08:41:57;;;;;;;0.80;0.60;;;;;;;;;;6324507;28;20012;-84
2024/03/04 08:44:57;;;;;;;0.90;0.60;;;;;;;;;;6324851;28;20020;-84
2024/03/04 08:47:57;;;;;;;0.50;0.50;;;;;;;;;;6323541;28;20103;-84
2024/03/04 08:50:58;;;;;;;0.50;0.47;;;;;;;;;;6301545;28;20024;-84
2024/03/04 08:53:58;;;;;;;0.70;0.50;;;;;;;;;;6299358;28;20093;-84
2024/03/04 08:56:58;;;;;;;0.70;0.50;;;;;;;;;;6322276;28;20027;-84
2024/03/04 08:59:59;;;;;;;0.60;0.50;;;;;;;;;;6321360;28;20115;-84
2024/03/04 09:02:59;;;;;;;1.00;0.50;;;;;;;;;;6323595;28;20052;-80
2024/03/04 09:05:59;;;;;;;0.60;0.30;;;;;;;;;;6304118;28;20024;-80
2024/03/04 09:08:59;;;;;;;0.40;0.40;;;;;;;;;;6303042;28;20023;-80
2024/03/04 09:12:03;;;;;;;0.43;0.40;;;;;;;;;;6305541;28;20016;-79
2024/03/04 09:15:04;;;;;;;0.50;0.40;;;;;;;;;;6323573;28;20457;-80
2024/03/04 09:18:05;;;;;;;2.47;0.40;;;;;;;;;;6305621;28;20077;-81
2024/03/04 09:21:06;;;;;;;1.58;0.50;;;;;;;;;;6321251;28;20030;-81
2024/03/04 09:24:06;;;;;;;0.50;0.40;;;;;;;;;;6315641;28;20062;-81
2024/03/04 09:27:06;;;;;;;0.57;0.43;;;;;;;;;;6323315;28;20024;-79
2024/03/04 09:30:07;;;;;;;1.07;0.67;;;;;;;;;;6300437;28;20366;-78
2024/03/04 09:33:07;;;;;;;0.70;0.70;;;;;;;;;;6323147;28;20027;-80
2024/03/04 09:36:07;;;;;;;0.80;0.60;;;;;;;;;;6321443;28;20028;-80
2024/03/04 09:39:08;;;;;;;0.90;0.70;;;;;;;;;;6319990;28;20468;-80
2024/03/04 09:42:11;;;;;;;2.28;0.55;;;;;;;;;;6298060;28;20177;-80
2024/03/04 09:45:11;;;;;;;0.82;0.60;;;;;;;;;;6304117;28;20388;-80
2024/03/04 09:48:12;;;;;;;0.60;0.40;;;;;;;;;;6315992;28;20457;-80
2024/03/04 09:51:14;;;;;;;1.58;0.88;;;;;;;;;;6321377;28;20016;-80
2024/03/04 09:54:14;;;;;;;1.75;0.60;;;;;;;;;;6314352;28;20039;-80
2024/03/04 09:57:14;;;;;;;0.73;0.50;;;;;;;;;;6320500;28;20387;-80
2024/03/04 10:00:15;;;;;;;0.47;0.47;;;;;;;;;;6319904;28;20016;-80
2024/03/04 10:03:15;;;;;;;1.80;0.67;;;;;;;;;;6322232;28;20027;-80
2024/03/04 10:06:16;;;;;;;1.63;0.60;;;;;;;;;;6317088;28;20517;-80
2024/03/04 10:09:16;;;;;;;0.45;0.40;;;;;;;;;;6302483;28;20013;-80
2024/03/04 10:12:16;;;;;;;0.87;0.70;;;;;;;;;;6294229;28;20024;-80
2024/03/04 10:15:19;;;;;;;0.73;0.70;;;;;;;;;;6311687;28;20020;-84
2024/03/04 10:18:19;;;;;;;1.65;0.90;;;;;;;;;;6323507;28;20028;-84
2024/03/04 10:21:19;;;;;;;0.90;0.70;;;;;;;;;;6293448;28;20028;-83
2024/03/04 10:24:20;;;;;;;1.37;0.60;;;;;;;;;;6303681;28;20466;-85
2024/03/04 10:27:20;;;;;;;1.63;0.63;;;;;;;;;;6317066;28;20023;-80
2024/03/04 10:30:26;;;;;;;1.93;0.70;;;;;;;;;;6320903;28;20481;-80
2024/03/04 10:33:26;;;;;;;1.27;0.75;;;;;;;;;;6321248;28;20031;-80
2024/03/04 10:36:28;;;;;;;2.40;0.70;;;;;;;;;;6316392;28;20461;-79
2024/03/04 10:39:30;;;;;;;1.38;0.85;;;;;;;;;;6317894;28;20020;-80
2024/03/04 10:42:30;;;;;;;1.40;0.70;;;;;;;;;;6314726;28;20028;-79
2024/03/04 10:45:32;;;;;;;1.57;0.90;;;;;;;;;;6315513;28;20077;-79
2024/03/04 10:48:32;;;;;;;1.08;0.88;;;;;;;;;;6305274;28;20016;-80
2024/03/04 10:51:33;;;;;;;2.25;0.88;;;;;;;;;;6305083;28;20024;-79
2024/03/04 10:54:34;;;;;;;2.50;0.90;;;;;;;;;;6320149;28;20032;-79
2024/03/04 10:57:34;;;;;;;1.50;1.00;;;;;;;;;;6320410;28;20031;-79
2024/03/04 11:00:35;;;;;;;2.25;0.90;;;;;;;;;;6319757;28;20392;-79
2024/03/04 11:03:41;;;;;;;1.17;0.82;;;;;;;;;;6301604;28;20056;-79
2024/03/04 11:06:43;;;;;;;1.05;0.75;;;;;;;;;;6305644;28;20067;-84
2024/03/04 11:09:46;;;;;;;1.52;0.80;;;;;;;;;;6320093;28;20020;-84
2024/03/04 11:13:13;;;;;;;1.73;0.98;;;;;;;;;;6322197;28;20066;-82
2024/03/04 11:16:18;;;;;;;1.33;0.80;;;;;;;;;;6299413;28;20040;-85
2024/03/04 11:19:24;;;;;;;1.45;1.00;;;;;;;;;;6313113;28;20021;-85
2024/03/04 11:22:25;;;;;;;1.30;1.15;;;;;;;;;;6278064;28;20036;-82
2024/03/04 11:25:26;;;;;;;2.20;1.20;;;;;;;;;;6321123;28;20050;-82
2024/03/04 11:28:27;;;;;;;3.78;0.98;;;;;;;;;;6326149;28;20028;-80
2024/03/04 11:31:27;;;;;;;0.95;0.70;;;;;;;;;;6325823;28;20118;-83
2024/03/04 11:34:28;;;;;;;2.33;1.00;;;;;;;;;;6323373;28;20028;-83
2024/03/04 11:37:29;;;;;;;1.27;0.73;;;;;;;;;;6325432;28;20060;-82
2024/03/04 11:40:29;;;;;;;1.05;0.93;;;;;;;;;;6313655;28;20051;-81
2024/03/04 11:43:42;;;;;;;1.50;1.07;;;;;;;;;;6302180;28;20041;-81
2024/03/04 11:46:43;;;;;;;1.85;1.10;;;;;;;;;;6324237;28;20476;-82
2024/03/04 11:49:47;;;;;;;1.13;1.02;;;;;;;;;;6307624;28;20444;-81
2024/03/04 11:52:53;;;;;;;1.58;1.13;;;;;;;;;;6320448;28;20062;-81
2024/03/04 11:55:54;;;;;;;1.13;0.93;;;;;;;;;;6303937;28;20380;-81
2024/03/04 11:58:55;;;;;;;3.83;1.20;;;;;;;;;;6323475;28;20055;-77
2024/03/04 12:01:55;;;;;;;1.15;0.80;;;;;;;;;;6320942;28;20051;-80
2024/03/04 12:04:56;;;;;;;1.13;0.70;;;;;;;;;;6302052;28;20457;-80
2024/03/04 12:07:56;;;;;;;1.20;0.90;;;;;;;;;;6324253;28;20099;-79
2024/03/04 12:10:57;;;;;;;3.07;0.90;;;;;;;;;;6325012;28;20028;-79
2024/03/04 12:13:57;;;;;;;1.17;0.65;;;;;;;;;;6322183;28;20016;-79
2024/03/04 12:16:57;;;;;;;0.75;0.60;;;;;;;;;;6323541;28;20032;-79
2024/03/04 12:19:58;;;;;;;1.70;0.40;;;;;;;;;;6320922;28;20028;-79
2024/03/04 12:23:01;;;;;;;0.30;0.30;;;;;;;;;;6322223;28;20031;-79
2024/03/04 12:26:14;;;;;;;0.32;0.30;;;;;;;;;;6325181;28;20059;-79
2024/03/04 12:29:19;;;;;;;1.88;0.30;;;;;;;;;;6322988;28;20031;-79
2024/03/04 12:32:19;;;;;;;1.10;0.30;;;;;;;;;;6323529;28;20102;-78
2024/03/04 12:35:23;;;;;;;0.40;0.40;;;;;;;;;;6318307;28;20036;-79
2024/03/04 12:38:26;;;;;;;0.40;0.40;;;;;;;;;;6312595;28;20059;-79
2024/03/04 12:41:27;;;;;;;0.28;0.28;;;;;;;;;;6316332;28;20373;-78
2024/03/04 12:44:27;;;;;;;0.57;0.33;;;;;;;;;;6314861;28;20334;-77
2024/03/04 12:47:27;;;;;;;0.30;0.30;;;;;;;;;;6303309;28;20069;-76
2024/03/04 12:50:28;;;;;;;0.30;0.30;;;;;;;;;;6320898;28;20082;-77
2024/03/04 12:53:28;;;;;;;0.38;0.35;;;;;;;;;;6304378;28;20036;-76
2024/03/04 12:56:29;;;;;;;0.37;0.37;;;;;;;;;;6323355;28;20035;-77
2024/03/04 12:59:29;;;;;;;1.10;0.30;;;;;;;;;;6320437;28;20103;-77
2024/03/04 13:02:29;;;;;;;0.30;0.30;;;;;;;;;;6318301;28;20152;-76
2024/03/04 13:05:30;;;;;;;0.73;0.30;;;;;;;;;;6301771;28;20477;-77
2024/03/04 13:08:31;;;;;;;0.50;0.40;;;;;;;;;;6305334;28;20149;-77
2024/03/04 13:11:31;;;;;;;0.40;0.20;;;;;;;;;;6322665;28;20028;-77
2024/03/04 13:14:33;;;;;;;1.13;0.20;;;;;;;;;;6300259;28;20111;-78
2024/03/04 13:17:36;;;;;;;0.47;0.40;;;;;;;;;;6320424;28;20036;-77
2024/03/04 13:20:37;;;;;;;1.17;0.30;;;;;;;;;;6321524;28;20081;-77
2024/03/04 13:23:37;;;;;;;1.20;0.43;;;;;;;;;;6307499;28;20078;-77
2024/03/04 13:26:40;;;;;;;1.15;0.30;;;;;;;;;;6323569;28;20554;-77
2024/03/04 13:29:40;;;;;;;1.38;0.40;;;;;;;;;;6322651;28;20364;-77
2024/03/04 13:32:40;;;;;;;1.50;1.10;;;;;;;;;;6322318;28;20047;-77
2024/03/04 13:35:41;;;;;;;0.80;0.80;;;;;;;;;;6321633;28;20067;-77
2024/03/04 13:38:41;;;;;;;0.60;0.60;;;;;;;;;;6322867;28;20774;-77
2024/03/04 13:41:41;;;;;;;0.70;0.40;;;;;;;;;;6322177;28;20035;-77
2024/03/04 13:44:42;;;;;;;0.60;0.40;;;;;;;;;;6323682;28;20457;-77
2024/03/04 13:47:42;;;;;;;0.68;0.45;;;;;;;;;;6322383;28;20059;-77
2024/03/04 13:50:42;;;;;;;1.20;0.40;;;;;;;;;;6310691;28;20035;-77
2024/03/04 13:53:43;;;;;;;0.30;0.30;;;;;;;;;;6316056;28;20281;-77
2024/03/04 13:56:43;;;;;;;0.43;0.43;;;;;;;;;;6316949;28;20038;-77
2024/03/04 13:59:43;;;;;;;0.90;0.40;;;;;;;;;;6304829;28;20056;-77
2024/03/04 14:02:44;;;;;;;0.40;0.40;;;;;;;;;;6320640;28;20035;-77
2024/03/04 14:05:44;;;;;;;0.93;0.37;;;;;;;;;;6321662;28;20261;-77
2024/03/04 14:08:44;;;;;;;0.37;0.37;;;;;;;;;;6319356;28;20469;-78
2024/03/04 14:11:48;;;;;;;0.53;0.40;;;;;;;;;;6307417;28;20036;-81
2024/03/04 14:14:48;;;;;;;1.30;0.30;;;;;;;;;;6322991;28;20411;-79
2024/03/04 14:17:49;;;;;;;0.30;0.30;;;;;;;;;;6322834;28;20085;-76
2024/03/04 14:20:50;;;;;;;0.40;0.40;;;;;;;;;;6319957;28;20080;-77
2024/03/04 14:23:50;;;;;;;0.43;0.38;;;;;;;;;;6321825;28;20469;-78
2024/03/04 14:26:50;;;;;;;1.80;0.40;;;;;;;;;;6310432;28;20478;-78
2024/03/04 14:29:52;;;;;;;0.30;0.30;;;;;;;;;;6293678;28;20424;-78
2024/03/04 14:32:52;;;;;;;0.38;0.30;;;;;;;;;;6322824;28;20108;-78
2024/03/04 14:35:53;;;;;;;0.30;0.30;;;;;;;;;;6318554;28;20020;-78
2024/03/04 14:38:53;;;;;;;2.60;0.40;;;;;;;;;;6318907;28;20020;-78
2024/03/04 14:41:53;;;;;;;1.03;0.50;;;;;;;;;;6320485;28;20290;-78
2024/03/04 14:44:54;;;;;;;0.47;0.30;;;;;;;;;;6322873;28;20023;-79
2024/03/04 14:47:54;;;;;;;0.50;0.47;;;;;;;;;;6323994;28;20041;-77
2024/03/04 14:50:54;;;;;;;0.43;0.40;;;;;;;;;;6319030;28;20024;-78
2024/03/04 14:53:54;;;;;;;0.37;0.30;;;;;;;;;;6316203;28;20031;-77
2024/03/04 14:56:55;;;;;;;0.77;0.30;;;;;;;;;;6323421;28;20016;-77
2024/03/04 14:59:56;;;;;;;0.43;0.40;;;;;;;;;;6325116;28;20103;-77
2024/03/04 15:02:56;;;;;;;0.63;0.30;;;;;;;;;;6327910;28;20270;-78
2024/03/04 15:05:56;;;;;;;0.67;0.33;;;;;;;;;;6323637;28;20119;-76
2024/03/04 15:08:57;;;;;;;0.98;0.70;;;;;;;;;;6316387;28;20465;-77
2024/03/04 15:11:57;;;;;;;0.80;0.60;;;;;;;;;;6311448;28;20027;-78
2024/03/04 15:14:58;;;;;;;0.50;0.50;;;;;;;;;;6324445;28;20124;-78
2024/03/04 15:17:59;;;;;;;0.75;0.50;;;;;;;;;;6303613;28;20055;-77
2024/03/04 15:20:59;;;;;;;1.23;0.53;;;;;;;;;;6320202;28;20465;-77
2024/03/04 15:23:59;;;;;;;1.27;0.60;;;;;;;;;;6320992;28;20441;-77
2024/03/04 15:27:00;;;;;;;0.50;0.47;;;;;;;;;;6324965;28;20506;-77
2024/03/04 15:30:00;;;;;;;2.40;0.60;;;;;;;;;;6306917;28;20115;-77
2024/03/04 15:33:00;;;;;;;0.60;0.45;;;;;;;;;;6307525;28;20114;-77
2024/03/04 15:36:02;;;;;;;0.90;0.63;;;;;;;;;;6321521;28;20167;-77
2024/03/04 15:39:03;;;;;;;0.50;0.40;;;;;;;;;;6324282;28;20294;-77
2024/03/04 15:42:04;;;;;;;;;;;;;;;;;;6323717;28;20067;-78
2024/03/04 15:45:05;;;;;;;0.47;0.32;;;;;;;;;;6316447;28;20372;-78
2024/03/04 15:48:06;;;;;;;1.77;0.50;;;;;;;;;;6294228;28;20032;-77
2024/03/04 15:51:06;;;;;;;;;;;;;;;;;;6322120;28;20031;-77
2024/03/04 15:54:06;;;;;;;0.40;0.30;;;;;;;;;;6318247;28;19908;-77
2024/03/04 15:57:07;;;;;;;0.40;0.40;;;;;;;;;;6320467;28;20035;-78
2024/03/04 16:00:13;;;;;;;1.15;0.50;;;;;;;;;;6305323;28;20020;-77
2024/03/04 16:03:13;;;;;;;0.57;0.45;;;;;;;;;;6324511;28;20476;-77
2024/03/04 16:06:14;;;;;;;0.63;0.60;;;;;;;;;;6320202;28;20032;-76
2024/03/04 16:09:14;;;;;;;0.50;0.50;;;;;;;;;;6312006;28;20518;-78
2024/03/04 16:12:15;;;;;;;2.30;1.83;;;;;;;;;;6317963;28;20090;-76
2024/03/04 16:15:15;;;;;;;2.53;2.30;;;;;;;;;;6306438;28;20029;-76
2024/03/04 16:18:15;;;;;;;2.80;1.67;;;;;;;;;;6320027;28;20388;-74
2024/03/04 16:21:16;;;;;;;1.20;1.00;;;;;;;;;;6320779;28;20258;-75
2024/03/04 16:24:16;;;;;;;1.75;0.90;;;;;;;;;;6320203;28;20036;-75
2024/03/04 16:27:18;;;;;;;2.40;0.80;;;;;;;;;;6296615;28;20538;-76
2024/03/04 16:30:18;;;;;;;1.45;0.63;;;;;;;;;;6305156;28;20128;-75
2024/03/04 16:33:19;;;;;;;0.83;0.63;;;;;;;;;;6306701;28;20034;-75
2024/03/04 16:36:19;;;;;;;0.90;0.70;;;;;;;;;;6305603;28;20026;-75
2024/03/04 16:39:19;;;;;;;2.57;0.63;;;;;;;;;;6323804;28;20297;-74
2024/03/04 16:42:20;;;;;;;0.60;0.60;;;;;;;;;;6322853;28;20035;-74
2024/03/04 16:45:20;;;;;;;1.43;0.77;;;;;;;;;;6322898;28;20023;-74
2024/03/04 16:48:20;;;;;;;1.50;0.80;;;;;;;;;;6323598;28;20028;-74
2024/03/04 16:51:20;;;;;;;1.33;0.70;;;;;;;;;;6321883;28;20051;-74
2024/03/04 16:54:20;;;;;;;1.10;0.87;;;;;;;;;;6322514;28;20024;-74
2024/03/04 16:57:21;;;;;;;1.20;1.00;;;;;;;;;;6321130;28;20366;-74
2024/03/04 17:00:22;;;;;;;2.33;1.00;;;;;;;;;;6321152;28;20472;-75
2024/03/04 17:03:22;;;;;;;;;;;;;;;;;;6306454;28;20110;-75
2024/03/04 17:06:22;;;;;;;1.48;0.98;;;;;;;;;;6320778;28;19930;-76
2024/03/04 17:09:22;;;;;;;2.20;1.40;;;;;;;;;;6322948;28;20035;-76
2024/03/04 17:12:23;;;;;;;2.33;1.30;;;;;;;;;;6318785;28;20551;-75
2024/03/04 17:15:24;;;;;;;2.23;1.50;;;;;;;;;;6322912;28;20057;-76
2024/03/04 17:18:24;;;;;;;1.83;1.50;;;;;;;;;;6302978;28;20024;-75
2024/03/04 17:21:24;;;;;;;2.00;1.47;;;;;;;;;;6320155;28;20044;-75
2024/03/04 17:24:25;;;;;;;1.98;1.58;;;;;;;;;;6322130;28;20056;-75
2024/03/04 17:27:25;;;;;;;4.40;1.80;;;;;;;;;;6323915;28;20081;-75
2024/03/04 17:30:25;;;;;;;2.63;1.93;;;;;;;;;;6323255;28;20376;-75
2024/03/04 17:33:26;;;;;;;2.37;2.10;;;;;;;;;;6320733;28;20495;-75
2024/03/04 17:36:26;;;;;;;2.85;2.35;;;;;;;;;;6320675;28;20127;-75
2024/03/04 17:39:27;;;;;;;3.87;2.20;;;;;;;;;;6318932;28;20028;-76
2024/03/04 17:42:27;;;;;;;3.67;2.60;;;;;;;;;;6322751;28;20035;-76
2024/03/04 17:45:27;;;;;;;3.73;3.03;;;;;;;;;;6319883;28;20023;-75
2024/03/04 17:48:28;;;;;;;3.60;3.00;;;;;;;;;;6311208;28;20036;-76
2024/03/04 17:51:28;;;;;;;4.13;3.27;;;;;;;;;;6311885;28;20032;-76
2024/03/04 17:54:28;;;;;;;5.13;3.47;;;;;;;;;;6313243;28;20073;-76
2024/03/04 17:57:28;;;;;;;4.50;3.07;;;;;;;;;;6316504;28;20109;-78
2024/03/04 18:00:29;;;;;;;4.90;3.00;;;;;;;;;;6316582;28;20392;-77
2024/03/04 18:03:29;;;;;;;5.93;3.47;;;;;;;;;;6318640;28;20492;-77
2024/03/04 18:06:33;;;;;;;4.30;3.37;;;;;;;;;;6312180;28;20520;-79